sensor_id;sensor_type;location;lat;lon;timestamp;P1;durP1;ratioP1;P2;durP2;ratioP2
10162;SDS011;5123;52.556;13.384;2023-02-01T00:00:50;12.50;;;3.03;;
10162;SDS011;5123;52.556;13.384;2023-02-01T00:03:23;10.70;;;3.33;;
10162;SDS011;5123;52.556;13.384;2023-02-01T00:05:56;7.60;;;2.70;;
10162;SDS011;5123;52.556;13.384;2023-02-01T00:08:29;10.30;;;2.53;;
10162;SDS011;5123;52.556;13.384;2023-02-01T00:11:03;12.93;;;3.90;;
10162;SDS011;5123;52.556;13.384;2023-02-01T00:13:38;12.27;;;3.27;;
10162;SDS011;5123;52.556;13.384;2023-02-01T00:16:12;10.33;;;3.43;;
10162;SDS011;5123;52.556;13.384;2023-02-01T00:18:48;6.70;;;2.60;;
10162;SDS011;5123;52.556;13.384;2023-02-01T00:21:22;16.93;;;4.53;;
10162;SDS011;5123;52.556;13.384;2023-02-01T00:23:54;14.03;;;3.73;;
10162;SDS011;5123;52.556;13.384;2023-02-01T00:26:30;7.50;;;2.30;;
10162;SDS011;5123;52.556;13.384;2023-02-01T00:29:10;12.87;;;3.37;;
10162;SDS011;5123;52.556;13.384;2023-02-01T00:31:43;16.77;;;3.90;;
10162;SDS011;5123;52.556;13.384;2023-02-01T00:34:16;13.60;;;4.10;;
10162;SDS011;5123;52.556;13.384;2023-02-01T00:36:49;7.67;;;2.53;;
10162;SDS011;5123;52.556;13.384;2023-02-01T00:39:23;12.47;;;4.07;;
10162;SDS011;5123;52.556;13.384;2023-02-01T00:41:56;6.53;;;2.60;;
10162;SDS011;5123;52.556;13.384;2023-02-01T00:44:36;16.97;;;3.93;;
10162;SDS011;5123;52.556;13.384;2023-02-01T00:47:11;9.37;;;4.47;;
10162;SDS011;5123;52.556;13.384;2023-02-01T00:49:44;17.20;;;3.47;;
10162;SDS011;5123;52.556;13.384;2023-02-01T00:52:17;18.10;;;3.50;;
10162;SDS011;5123;52.556;13.384;2023-02-01T00:54:50;9.33;;;2.97;;
10162;SDS011;5123;52.556;13.384;2023-02-01T00:57:23;14.60;;;3.63;;
10162;SDS011;5123;52.556;13.384;2023-02-01T00:59:57;4.40;;;2.33;;
10162;SDS011;5123;52.556;13.384;2023-02-01T01:02:30;10.13;;;3.03;;
10162;SDS011;5123;52.556;13.384;2023-02-01T01:05:03;7.20;;;2.33;;
10162;SDS011;5123;52.556;13.384;2023-02-01T01:07:38;8.17;;;2.67;;
10162;SDS011;5123;52.556;13.384;2023-02-01T01:10:13;7.03;;;2.50;;
10162;SDS011;5123;52.556;13.384;2023-02-01T01:12:46;14.13;;;3.20;;
10162;SDS011;5123;52.556;13.384;2023-02-01T01:15:22;8.03;;;2.63;;
10162;SDS011;5123;52.556;13.384;2023-02-01T01:17:55;8.67;;;2.67;;
10162;SDS011;5123;52.556;13.384;2023-02-01T01:20:28;9.87;;;3.20;;
10162;SDS011;5123;52.556;13.384;2023-02-01T01:23:04;8.27;;;2.80;;
10162;SDS011;5123;52.556;13.384;2023-02-01T01:25:37;11.87;;;3.13;;
10162;SDS011;5123;52.556;13.384;2023-02-01T01:28:10;7.00;;;2.93;;
10162;SDS011;5123;52.556;13.384;2023-02-01T01:30:45;12.93;;;3.70;;
10162;SDS011;5123;52.556;13.384;2023-02-01T01:33:19;7.07;;;1.87;;
10162;SDS011;5123;52.556;13.384;2023-02-01T01:35:52;10.33;;;3.23;;
10162;SDS011;5123;52.556;13.384;2023-02-01T01:38:25;13.47;;;3.07;;
10162;SDS011;5123;52.556;13.384;2023-02-01T01:40:58;7.80;;;2.47;;
10162;SDS011;5123;52.556;13.384;2023-02-01T01:43:46;10.43;;;3.17;;
10162;SDS011;5123;52.556;13.384;2023-02-01T01:46:21;9.47;;;2.17;;
10162;SDS011;5123;52.556;13.384;2023-02-01T01:48:56;15.67;;;3.13;;
10162;SDS011;5123;52.556;13.384;2023-02-01T01:51:31;9.13;;;3.00;;
10162;SDS011;5123;52.556;13.384;2023-02-01T01:54:07;10.13;;;3.10;;
10162;SDS011;5123;52.556;13.384;2023-02-01T01:56:42;8.13;;;2.73;;
10162;SDS011;5123;52.556;13.384;2023-02-01T01:59:15;12.43;;;3.00;;
10162;SDS011;5123;52.556;13.384;2023-02-01T02:01:49;6.03;;;2.20;;
10162;SDS011;5123;52.556;13.384;2023-02-01T02:04:23;6.10;;;2.43;;
10162;SDS011;5123;52.556;13.384;2023-02-01T02:06:57;10.70;;;3.40;;
10162;SDS011;5123;52.556;13.384;2023-02-01T02:09:32;10.90;;;2.67;;
10162;SDS011;5123;52.556;13.384;2023-02-01T02:12:05;9.50;;;2.93;;
10162;SDS011;5123;52.556;13.384;2023-02-01T02:14:38;12.80;;;3.10;;
10162;SDS011;5123;52.556;13.384;2023-02-01T02:17:19;10.87;;;2.83;;
10162;SDS011;5123;52.556;13.384;2023-02-01T02:25:55;12.17;;;3.40;;
10162;SDS011;5123;52.556;13.384;2023-02-01T02:28:46;10.93;;;3.23;;
10162;SDS011;5123;52.556;13.384;2023-02-01T02:34:18;14.17;;;2.97;;
10162;SDS011;5123;52.556;13.384;2023-02-01T02:37:00;14.63;;;3.83;;
10162;SDS011;5123;52.556;13.384;2023-02-01T02:39:38;7.30;;;2.63;;
10162;SDS011;5123;52.556;13.384;2023-02-01T02:42:17;12.93;;;3.30;;
10162;SDS011;5123;52.556;13.384;2023-02-01T02:45:12;6.40;;;2.87;;
10162;SDS011;5123;52.556;13.384;2023-02-01T02:48:08;4.53;;;2.10;;
10162;SDS011;5123;52.556;13.384;2023-02-01T02:50:46;11.07;;;3.10;;
10162;SDS011;5123;52.556;13.384;2023-02-01T02:53:38;9.20;;;2.43;;
10162;SDS011;5123;52.556;13.384;2023-02-01T02:56:29;6.97;;;2.67;;
10162;SDS011;5123;52.556;13.384;2023-02-01T02:59:20;11.40;;;3.83;;
10162;SDS011;5123;52.556;13.384;2023-02-01T03:02:11;17.50;;;3.77;;
10162;SDS011;5123;52.556;13.384;2023-02-01T03:05:03;16.37;;;3.67;;
10162;SDS011;5123;52.556;13.384;2023-02-01T03:07:57;8.93;;;1.70;;
10162;SDS011;5123;52.556;13.384;2023-02-01T03:10:35;16.50;;;3.30;;
10162;SDS011;5123;52.556;13.384;2023-02-01T03:13:11;5.37;;;2.90;;
10162;SDS011;5123;52.556;13.384;2023-02-01T03:15:46;12.20;;;3.73;;
10162;SDS011;5123;52.556;13.384;2023-02-01T03:18:25;14.40;;;4.00;;
10162;SDS011;5123;52.556;13.384;2023-02-01T03:20:59;11.70;;;4.20;;
10162;SDS011;5123;52.556;13.384;2023-02-01T03:23:36;7.17;;;2.90;;
10162;SDS011;5123;52.556;13.384;2023-02-01T03:26:11;19.00;;;3.73;;
10162;SDS011;5123;52.556;13.384;2023-02-01T03:28:49;9.67;;;3.23;;
10162;SDS011;5123;52.556;13.384;2023-02-01T03:31:24;12.63;;;3.47;;
10162;SDS011;5123;52.556;13.384;2023-02-01T03:33:57;14.80;;;3.40;;
10162;SDS011;5123;52.556;13.384;2023-02-01T03:36:32;13.67;;;4.37;;
10162;SDS011;5123;52.556;13.384;2023-02-01T03:39:11;9.07;;;2.47;;
10162;SDS011;5123;52.556;13.384;2023-02-01T03:41:48;11.43;;;3.77;;
10162;SDS011;5123;52.556;13.384;2023-02-01T03:44:24;5.20;;;2.67;;
10162;SDS011;5123;52.556;13.384;2023-02-01T03:46:59;12.83;;;4.13;;
10162;SDS011;5123;52.556;13.384;2023-02-01T03:49:35;13.50;;;3.80;;
10162;SDS011;5123;52.556;13.384;2023-02-01T03:52:10;13.20;;;3.37;;
10162;SDS011;5123;52.556;13.384;2023-02-01T03:54:46;15.80;;;3.00;;
10162;SDS011;5123;52.556;13.384;2023-02-01T03:57:20;17.20;;;3.70;;
10162;SDS011;5123;52.556;13.384;2023-02-01T03:59:54;11.10;;;3.00;;
10162;SDS011;5123;52.556;13.384;2023-02-01T04:02:36;22.57;;;4.00;;
10162;SDS011;5123;52.556;13.384;2023-02-01T04:05:10;15.73;;;3.77;;
10162;SDS011;5123;52.556;13.384;2023-02-01T04:07:43;12.37;;;3.77;;
10162;SDS011;5123;52.556;13.384;2023-02-01T04:10:20;6.47;;;2.30;;
10162;SDS011;5123;52.556;13.384;2023-02-01T04:12:53;11.87;;;3.10;;
10162;SDS011;5123;52.556;13.384;2023-02-01T04:15:26;10.23;;;2.60;;
10162;SDS011;5123;52.556;13.384;2023-02-01T04:18:00;11.33;;;2.73;;
10162;SDS011;5123;52.556;13.384;2023-02-01T04:20:33;7.87;;;2.87;;
10162;SDS011;5123;52.556;13.384;2023-02-01T04:23:08;11.37;;;3.33;;
10162;SDS011;5123;52.556;13.384;2023-02-01T04:25:45;8.80;;;3.20;;
10162;SDS011;5123;52.556;13.384;2023-02-01T04:28:18;13.17;;;3.70;;
10162;SDS011;5123;52.556;13.384;2023-02-01T04:30:51;14.60;;;3.77;;
10162;SDS011;5123;52.556;13.384;2023-02-01T04:33:23;12.40;;;3.60;;
10162;SDS011;5123;52.556;13.384;2023-02-01T04:35:56;13.20;;;3.77;;
10162;SDS011;5123;52.556;13.384;2023-02-01T04:38:29;14.97;;;3.67;;
10162;SDS011;5123;52.556;13.384;2023-02-01T04:41:05;12.17;;;4.03;;
10162;SDS011;5123;52.556;13.384;2023-02-01T04:43:38;12.07;;;3.77;;
10162;SDS011;5123;52.556;13.384;2023-02-01T04:46:11;9.70;;;3.57;;
10162;SDS011;5123;52.556;13.384;2023-02-01T04:48:44;11.40;;;3.93;;
10162;SDS011;5123;52.556;13.384;2023-02-01T04:51:17;11.30;;;3.57;;
10162;SDS011;5123;52.556;13.384;2023-02-01T04:53:50;25.13;;;4.53;;
10162;SDS011;5123;52.556;13.384;2023-02-01T04:56:24;14.27;;;4.03;;
10162;SDS011;5123;52.556;13.384;2023-02-01T04:58:58;14.17;;;3.70;;
10162;SDS011;5123;52.556;13.384;2023-02-01T05:01:30;14.43;;;5.07;;
10162;SDS011;5123;52.556;13.384;2023-02-01T05:04:04;15.70;;;3.70;;
10162;SDS011;5123;52.556;13.384;2023-02-01T05:06:37;20.60;;;4.50;;
10162;SDS011;5123;52.556;13.384;2023-02-01T05:09:10;13.17;;;3.97;;
10162;SDS011;5123;52.556;13.384;2023-02-01T05:11:44;24.10;;;4.80;;
10162;SDS011;5123;52.556;13.384;2023-02-01T05:14:37;12.30;;;3.23;;
10162;SDS011;5123;52.556;13.384;2023-02-01T05:17:10;9.53;;;3.77;;
10162;SDS011;5123;52.556;13.384;2023-02-01T05:19:43;17.47;;;4.53;;
10162;SDS011;5123;52.556;13.384;2023-02-01T05:22:16;10.07;;;3.60;;
10162;SDS011;5123;52.556;13.384;2023-02-01T05:24:49;15.97;;;4.20;;
10162;SDS011;5123;52.556;13.384;2023-02-01T05:27:23;14.80;;;4.43;;
10162;SDS011;5123;52.556;13.384;2023-02-01T05:29:57;13.17;;;3.70;;
10162;SDS011;5123;52.556;13.384;2023-02-01T05:32:32;17.60;;;3.50;;
10162;SDS011;5123;52.556;13.384;2023-02-01T05:35:08;15.13;;;3.83;;
10162;SDS011;5123;52.556;13.384;2023-02-01T05:37:41;5.53;;;2.53;;
10162;SDS011;5123;52.556;13.384;2023-02-01T05:40:14;10.93;;;4.13;;
10162;SDS011;5123;52.556;13.384;2023-02-01T05:42:49;14.83;;;4.37;;
10162;SDS011;5123;52.556;13.384;2023-02-01T05:45:23;15.07;;;3.53;;
10162;SDS011;5123;52.556;13.384;2023-02-01T05:47:56;8.37;;;3.53;;
10162;SDS011;5123;52.556;13.384;2023-02-01T05:50:29;11.70;;;3.50;;
10162;SDS011;5123;52.556;13.384;2023-02-01T05:53:02;12.67;;;3.20;;
10162;SDS011;5123;52.556;13.384;2023-02-01T05:55:35;13.40;;;4.87;;
10162;SDS011;5123;52.556;13.384;2023-02-01T05:58:09;12.57;;;4.27;;
10162;SDS011;5123;52.556;13.384;2023-02-01T06:00:45;13.40;;;3.73;;
10162;SDS011;5123;52.556;13.384;2023-02-01T06:03:18;13.53;;;3.70;;
10162;SDS011;5123;52.556;13.384;2023-02-01T06:05:51;6.47;;;2.90;;
10162;SDS011;5123;52.556;13.384;2023-02-01T06:08:25;16.33;;;3.73;;
10162;SDS011;5123;52.556;13.384;2023-02-01T06:11:01;12.60;;;4.07;;
10162;SDS011;5123;52.556;13.384;2023-02-01T06:13:36;10.43;;;3.30;;
10162;SDS011;5123;52.556;13.384;2023-02-01T06:16:10;6.97;;;2.63;;
10162;SDS011;5123;52.556;13.384;2023-02-01T06:18:43;7.40;;;3.40;;
10162;SDS011;5123;52.556;13.384;2023-02-01T06:21:16;13.57;;;3.53;;
10162;SDS011;5123;52.556;13.384;2023-02-01T06:23:55;21.87;;;4.77;;
10162;SDS011;5123;52.556;13.384;2023-02-01T06:26:29;15.37;;;4.20;;
10162;SDS011;5123;52.556;13.384;2023-02-01T06:29:04;9.70;;;3.77;;
10162;SDS011;5123;52.556;13.384;2023-02-01T06:31:38;17.27;;;3.77;;
10162;SDS011;5123;52.556;13.384;2023-02-01T06:34:18;12.10;;;3.00;;
10162;SDS011;5123;52.556;13.384;2023-02-01T06:36:53;14.07;;;4.30;;
10162;SDS011;5123;52.556;13.384;2023-02-01T06:39:29;10.47;;;3.80;;
10162;SDS011;5123;52.556;13.384;2023-02-01T06:42:02;13.10;;;3.67;;
10162;SDS011;5123;52.556;13.384;2023-02-01T06:44:36;10.30;;;3.60;;
10162;SDS011;5123;52.556;13.384;2023-02-01T06:47:10;10.03;;;4.10;;
10162;SDS011;5123;52.556;13.384;2023-02-01T06:49:52;15.93;;;4.50;;
10162;SDS011;5123;52.556;13.384;2023-02-01T06:52:26;15.10;;;4.70;;
10162;SDS011;5123;52.556;13.384;2023-02-01T06:54:59;15.30;;;3.73;;
10162;SDS011;5123;52.556;13.384;2023-02-01T06:57:35;16.03;;;3.97;;
10162;SDS011;5123;52.556;13.384;2023-02-01T07:00:10;7.30;;;3.20;;
10162;SDS011;5123;52.556;13.384;2023-02-01T07:02:47;12.47;;;3.97;;
10162;SDS011;5123;52.556;13.384;2023-02-01T07:05:20;13.73;;;4.07;;
10162;SDS011;5123;52.556;13.384;2023-02-01T07:07:53;8.90;;;3.60;;
10162;SDS011;5123;52.556;13.384;2023-02-01T07:10:33;10.27;;;3.27;;
10162;SDS011;5123;52.556;13.384;2023-02-01T07:13:06;8.03;;;3.50;;
10162;SDS011;5123;52.556;13.384;2023-02-01T07:15:41;11.40;;;3.77;;
10162;SDS011;5123;52.556;13.384;2023-02-01T07:18:14;12.47;;;3.70;;
10162;SDS011;5123;52.556;13.384;2023-02-01T07:20:50;22.33;;;4.20;;
10162;SDS011;5123;52.556;13.384;2023-02-01T07:23:24;12.20;;;3.80;;
10162;SDS011;5123;52.556;13.384;2023-02-01T07:25:57;12.37;;;4.40;;
10162;SDS011;5123;52.556;13.384;2023-02-01T07:28:32;12.73;;;3.77;;
10162;SDS011;5123;52.556;13.384;2023-02-01T07:31:07;10.53;;;3.47;;
10162;SDS011;5123;52.556;13.384;2023-02-01T07:33:41;13.13;;;3.77;;
10162;SDS011;5123;52.556;13.384;2023-02-01T07:36:15;11.73;;;3.83;;
10162;SDS011;5123;52.556;13.384;2023-02-01T07:38:48;12.00;;;3.50;;
10162;SDS011;5123;52.556;13.384;2023-02-01T07:41:27;13.67;;;4.33;;
10162;SDS011;5123;52.556;13.384;2023-02-01T07:44:00;11.90;;;4.67;;
10162;SDS011;5123;52.556;13.384;2023-02-01T07:46:35;13.13;;;3.63;;
10162;SDS011;5123;52.556;13.384;2023-02-01T07:49:10;8.77;;;2.80;;
10162;SDS011;5123;52.556;13.384;2023-02-01T07:51:55;10.47;;;3.17;;
10162;SDS011;5123;52.556;13.384;2023-02-01T07:54:28;14.40;;;4.10;;
10162;SDS011;5123;52.556;13.384;2023-02-01T07:57:02;7.73;;;2.97;;
10162;SDS011;5123;52.556;13.384;2023-02-01T07:59:35;8.57;;;2.20;;
10162;SDS011;5123;52.556;13.384;2023-02-01T08:02:30;10.17;;;3.60;;
10162;SDS011;5123;52.556;13.384;2023-02-01T08:05:03;9.67;;;3.50;;
10162;SDS011;5123;52.556;13.384;2023-02-01T08:07:36;9.10;;;4.10;;
10162;SDS011;5123;52.556;13.384;2023-02-01T08:10:10;14.67;;;3.73;;
10162;SDS011;5123;52.556;13.384;2023-02-01T08:12:58;7.27;;;2.60;;
10162;SDS011;5123;52.556;13.384;2023-02-01T08:15:32;8.17;;;2.83;;
10162;SDS011;5123;52.556;13.384;2023-02-01T08:18:07;10.73;;;3.40;;
10162;SDS011;5123;52.556;13.384;2023-02-01T08:20:41;9.03;;;3.67;;
10162;SDS011;5123;52.556;13.384;2023-02-01T08:23:17;10.90;;;3.60;;
10162;SDS011;5123;52.556;13.384;2023-02-01T08:25:50;7.77;;;3.57;;
10162;SDS011;5123;52.556;13.384;2023-02-01T08:28:25;7.53;;;3.87;;
10162;SDS011;5123;52.556;13.384;2023-02-01T08:30:58;8.70;;;3.63;;
10162;SDS011;5123;52.556;13.384;2023-02-01T08:33:33;8.97;;;3.17;;
10162;SDS011;5123;52.556;13.384;2023-02-01T08:36:07;4.30;;;2.87;;
10162;SDS011;5123;52.556;13.384;2023-02-01T08:38:41;8.53;;;2.97;;
10162;SDS011;5123;52.556;13.384;2023-02-01T08:41:15;4.70;;;2.83;;
10162;SDS011;5123;52.556;13.384;2023-02-01T08:43:50;6.63;;;3.40;;
10162;SDS011;5123;52.556;13.384;2023-02-01T08:46:23;7.10;;;3.50;;
10162;SDS011;5123;52.556;13.384;2023-02-01T08:48:58;4.43;;;2.37;;
10162;SDS011;5123;52.556;13.384;2023-02-01T08:51:31;6.73;;;2.80;;
10162;SDS011;5123;52.556;13.384;2023-02-01T08:54:04;3.13;;;2.20;;
10162;SDS011;5123;52.556;13.384;2023-02-01T08:56:37;5.00;;;3.37;;
10162;SDS011;5123;52.556;13.384;2023-02-01T08:59:10;4.67;;;3.13;;
10162;SDS011;5123;52.556;13.384;2023-02-01T09:01:46;6.67;;;3.23;;
10162;SDS011;5123;52.556;13.384;2023-02-01T09:04:21;3.63;;;2.70;;
10162;SDS011;5123;52.556;13.384;2023-02-01T09:06:55;5.20;;;2.90;;
10162;SDS011;5123;52.556;13.384;2023-02-01T09:09:28;4.43;;;2.40;;
10162;SDS011;5123;52.556;13.384;2023-02-01T09:12:06;5.67;;;2.50;;
10162;SDS011;5123;52.556;13.384;2023-02-01T09:14:40;6.03;;;3.23;;
10162;SDS011;5123;52.556;13.384;2023-02-01T09:17:13;4.73;;;3.33;;
10162;SDS011;5123;52.556;13.384;2023-02-01T09:19:50;5.43;;;2.57;;
10162;SDS011;5123;52.556;13.384;2023-02-01T09:22:25;3.37;;;2.20;;
10162;SDS011;5123;52.556;13.384;2023-02-01T09:24:58;3.63;;;2.17;;
10162;SDS011;5123;52.556;13.384;2023-02-01T09:27:32;7.47;;;3.00;;
10162;SDS011;5123;52.556;13.384;2023-02-01T09:30:06;2.43;;;1.90;;
10162;SDS011;5123;52.556;13.384;2023-02-01T09:32:41;6.10;;;2.17;;
10162;SDS011;5123;52.556;13.384;2023-02-01T09:35:17;2.93;;;1.60;;
10162;SDS011;5123;52.556;13.384;2023-02-01T09:37:52;2.17;;;1.80;;
10162;SDS011;5123;52.556;13.384;2023-02-01T09:40:25;3.20;;;2.00;;
10162;SDS011;5123;52.556;13.384;2023-02-01T09:43:07;3.27;;;1.77;;
10162;SDS011;5123;52.556;13.384;2023-02-01T09:45:48;3.87;;;2.10;;
10162;SDS011;5123;52.556;13.384;2023-02-01T09:48:31;2.70;;;1.70;;
10162;SDS011;5123;52.556;13.384;2023-02-01T09:51:18;4.43;;;1.63;;
10162;SDS011;5123;52.556;13.384;2023-02-01T09:54:02;1.50;;;1.40;;
10162;SDS011;5123;52.556;13.384;2023-02-01T09:56:40;1.77;;;1.67;;
10162;SDS011;5123;52.556;13.384;2023-02-01T09:59:28;2.13;;;1.77;;
10162;SDS011;5123;52.556;13.384;2023-02-01T10:02:08;4.10;;;1.80;;
10162;SDS011;5123;52.556;13.384;2023-02-01T10:04:44;2.17;;;1.83;;
10162;SDS011;5123;52.556;13.384;2023-02-01T10:07:23;2.87;;;1.63;;
10162;SDS011;5123;52.556;13.384;2023-02-01T10:09:59;2.13;;;1.83;;
10162;SDS011;5123;52.556;13.384;2023-02-01T10:15:35;2.10;;;1.43;;
10162;SDS011;5123;52.556;13.384;2023-02-01T10:18:18;4.10;;;2.00;;
10162;SDS011;5123;52.556;13.384;2023-02-01T10:20:57;1.90;;;1.70;;
10162;SDS011;5123;52.556;13.384;2023-02-01T10:26:53;4.97;;;1.70;;
10162;SDS011;5123;52.556;13.384;2023-02-01T10:29:31;2.83;;;1.73;;
10162;SDS011;5123;52.556;13.384;2023-02-01T10:32:09;3.40;;;1.60;;
10162;SDS011;5123;52.556;13.384;2023-02-01T10:34:46;4.87;;;1.97;;
10162;SDS011;5123;52.556;13.384;2023-02-01T10:37:27;5.60;;;1.73;;
10162;SDS011;5123;52.556;13.384;2023-02-01T10:40:02;5.17;;;2.30;;
10162;SDS011;5123;52.556;13.384;2023-02-01T10:42:44;2.90;;;2.10;;
10162;SDS011;5123;52.556;13.384;2023-02-01T10:45:19;9.43;;;2.70;;
10162;SDS011;5123;52.556;13.384;2023-02-01T10:47:54;3.33;;;2.20;;
10162;SDS011;5123;52.556;13.384;2023-02-01T10:50:33;2.87;;;1.70;;
10162;SDS011;5123;52.556;13.384;2023-02-01T10:53:10;2.83;;;1.57;;
10162;SDS011;5123;52.556;13.384;2023-02-01T10:55:53;1.63;;;1.47;;
10162;SDS011;5123;52.556;13.384;2023-02-01T10:58:29;2.80;;;1.53;;
10162;SDS011;5123;52.556;13.384;2023-02-01T11:01:04;5.40;;;1.80;;
10162;SDS011;5123;52.556;13.384;2023-02-01T11:03:41;4.43;;;1.83;;
10162;SDS011;5123;52.556;13.384;2023-02-01T11:06:24;6.50;;;2.20;;
10162;SDS011;5123;52.556;13.384;2023-02-01T11:08:58;6.30;;;2.27;;
10162;SDS011;5123;52.556;13.384;2023-02-01T11:11:31;6.40;;;2.20;;
10162;SDS011;5123;52.556;13.384;2023-02-01T11:14:12;3.43;;;2.03;;
10162;SDS011;5123;52.556;13.384;2023-02-01T11:16:47;5.07;;;2.40;;
10162;SDS011;5123;52.556;13.384;2023-02-01T11:19:20;6.47;;;2.30;;
10162;SDS011;5123;52.556;13.384;2023-02-01T11:21:59;7.43;;;2.77;;
10162;SDS011;5123;52.556;13.384;2023-02-01T11:24:34;3.47;;;2.57;;
10162;SDS011;5123;52.556;13.384;2023-02-01T11:27:12;6.80;;;2.37;;
10162;SDS011;5123;52.556;13.384;2023-02-01T11:29:59;5.77;;;2.23;;
10162;SDS011;5123;52.556;13.384;2023-02-01T11:32:35;6.57;;;2.50;;
10162;SDS011;5123;52.556;13.384;2023-02-01T11:35:12;6.90;;;1.93;;
10162;SDS011;5123;52.556;13.384;2023-02-01T11:37:49;9.07;;;2.40;;
10162;SDS011;5123;52.556;13.384;2023-02-01T11:40:25;4.87;;;2.90;;
10162;SDS011;5123;52.556;13.384;2023-02-01T11:42:59;2.47;;;2.03;;
10162;SDS011;5123;52.556;13.384;2023-02-01T11:45:34;9.87;;;2.80;;
10162;SDS011;5123;52.556;13.384;2023-02-01T11:48:09;8.43;;;3.37;;
10162;SDS011;5123;52.556;13.384;2023-02-01T11:50:50;6.70;;;2.80;;
10162;SDS011;5123;52.556;13.384;2023-02-01T11:53:30;11.03;;;2.77;;
10162;SDS011;5123;52.556;13.384;2023-02-01T11:56:11;6.47;;;2.83;;
10162;SDS011;5123;52.556;13.384;2023-02-01T11:58:50;8.23;;;2.70;;
10162;SDS011;5123;52.556;13.384;2023-02-01T12:01:41;8.00;;;1.97;;
10162;SDS011;5123;52.556;13.384;2023-02-01T12:04:31;9.10;;;2.67;;
10162;SDS011;5123;52.556;13.384;2023-02-01T12:07:13;4.90;;;2.77;;
10162;SDS011;5123;52.556;13.384;2023-02-01T12:09:52;7.80;;;2.73;;
10162;SDS011;5123;52.556;13.384;2023-02-01T12:12:36;4.80;;;2.00;;
10162;SDS011;5123;52.556;13.384;2023-02-01T12:15:20;5.73;;;2.67;;
10162;SDS011;5123;52.556;13.384;2023-02-01T12:18:01;7.30;;;2.53;;
10162;SDS011;5123;52.556;13.384;2023-02-01T12:23:46;5.87;;;2.67;;
10162;SDS011;5123;52.556;13.384;2023-02-01T12:29:26;7.50;;;1.63;;
10162;SDS011;5123;52.556;13.384;2023-02-01T12:32:06;5.50;;;2.43;;
10162;SDS011;5123;52.556;13.384;2023-02-01T12:34:49;5.30;;;2.10;;
10162;SDS011;5123;52.556;13.384;2023-02-01T12:37:29;5.53;;;2.70;;
10162;SDS011;5123;52.556;13.384;2023-02-01T12:40:14;5.33;;;2.70;;
10162;SDS011;5123;52.556;13.384;2023-02-01T12:42:53;6.10;;;2.87;;
10162;SDS011;5123;52.556;13.384;2023-02-01T12:45:30;9.83;;;3.10;;
10162;SDS011;5123;52.556;13.384;2023-02-01T12:48:08;8.93;;;2.47;;
10162;SDS011;5123;52.556;13.384;2023-02-01T12:50:49;10.40;;;2.57;;
10162;SDS011;5123;52.556;13.384;2023-02-01T12:53:25;12.70;;;3.10;;
10162;SDS011;5123;52.556;13.384;2023-02-01T12:56:03;7.20;;;2.63;;
10162;SDS011;5123;52.556;13.384;2023-02-01T12:58:39;10.70;;;3.50;;
10162;SDS011;5123;52.556;13.384;2023-02-01T13:01:18;8.70;;;3.40;;
10162;SDS011;5123;52.556;13.384;2023-02-01T13:03:56;5.43;;;2.80;;
10162;SDS011;5123;52.556;13.384;2023-02-01T13:06:34;12.97;;;3.27;;
10162;SDS011;5123;52.556;13.384;2023-02-01T13:09:09;6.87;;;1.90;;
10162;SDS011;5123;52.556;13.384;2023-02-01T13:11:48;8.73;;;2.70;;
10162;SDS011;5123;52.556;13.384;2023-02-01T13:14:24;9.57;;;2.63;;
10162;SDS011;5123;52.556;13.384;2023-02-01T13:16:59;5.23;;;2.40;;
10162;SDS011;5123;52.556;13.384;2023-02-01T13:19:37;3.97;;;1.93;;
10162;SDS011;5123;52.556;13.384;2023-02-01T13:22:15;7.87;;;1.87;;
10162;SDS011;5123;52.556;13.384;2023-02-01T13:24:50;6.40;;;1.87;;
10162;SDS011;5123;52.556;13.384;2023-02-01T13:27:25;4.40;;;1.67;;
10162;SDS011;5123;52.556;13.384;2023-02-01T13:29:59;7.63;;;2.70;;
10162;SDS011;5123;52.556;13.384;2023-02-01T13:32:47;9.97;;;2.70;;
10162;SDS011;5123;52.556;13.384;2023-02-01T13:35:47;7.30;;;2.47;;
10162;SDS011;5123;52.556;13.384;2023-02-01T13:38:36;3.80;;;2.47;;
10162;SDS011;5123;52.556;13.384;2023-02-01T13:41:16;4.33;;;2.03;;
10162;SDS011;5123;52.556;13.384;2023-02-01T13:43:57;5.10;;;2.30;;
10162;SDS011;5123;52.556;13.384;2023-02-01T13:46:33;8.20;;;2.53;;
10162;SDS011;5123;52.556;13.384;2023-02-01T13:49:16;8.17;;;2.87;;
10162;SDS011;5123;52.556;13.384;2023-02-01T13:51:53;5.13;;;1.93;;
10162;SDS011;5123;52.556;13.384;2023-02-01T13:54:30;11.37;;;3.17;;
10162;SDS011;5123;52.556;13.384;2023-02-01T13:57:05;8.37;;;2.27;;
10162;SDS011;5123;52.556;13.384;2023-02-01T14:08:38;7.67;;;2.50;;
10162;SDS011;5123;52.556;13.384;2023-02-01T14:11:33;9.27;;;2.70;;
10162;SDS011;5123;52.556;13.384;2023-02-01T14:23:28;7.10;;;2.60;;
10162;SDS011;5123;52.556;13.384;2023-02-01T14:26:06;4.03;;;2.03;;
10162;SDS011;5123;52.556;13.384;2023-02-01T14:28:42;8.60;;;3.07;;
10162;SDS011;5123;52.556;13.384;2023-02-01T14:31:32;5.60;;;2.67;;
10162;SDS011;5123;52.556;13.384;2023-02-01T14:34:11;4.93;;;2.70;;
10162;SDS011;5123;52.556;13.384;2023-02-01T14:36:46;8.57;;;3.40;;
10162;SDS011;5123;52.556;13.384;2023-02-01T14:39:22;13.33;;;3.87;;
10162;SDS011;5123;52.556;13.384;2023-02-01T14:41:57;10.53;;;4.00;;
10162;SDS011;5123;52.556;13.384;2023-02-01T14:44:37;7.43;;;3.30;;
10162;SDS011;5123;52.556;13.384;2023-02-01T14:47:31;10.23;;;4.47;;
10162;SDS011;5123;52.556;13.384;2023-02-01T14:50:15;11.40;;;4.07;;
10162;SDS011;5123;52.556;13.384;2023-02-01T14:52:51;10.63;;;3.70;;
10162;SDS011;5123;52.556;13.384;2023-02-01T14:55:35;11.40;;;3.87;;
10162;SDS011;5123;52.556;13.384;2023-02-01T14:58:16;7.57;;;2.80;;
10162;SDS011;5123;52.556;13.384;2023-02-01T15:00:53;9.93;;;3.87;;
10162;SDS011;5123;52.556;13.384;2023-02-01T15:03:34;9.30;;;3.83;;
10162;SDS011;5123;52.556;13.384;2023-02-01T15:06:21;7.53;;;3.70;;
10162;SDS011;5123;52.556;13.384;2023-02-01T15:08:58;9.30;;;3.30;;
10162;SDS011;5123;52.556;13.384;2023-02-01T15:11:32;11.70;;;3.87;;
10162;SDS011;5123;52.556;13.384;2023-02-01T15:14:25;4.10;;;2.50;;
10162;SDS011;5123;52.556;13.384;2023-02-01T15:17:00;6.67;;;2.53;;
10162;SDS011;5123;52.556;13.384;2023-02-01T15:19:34;4.63;;;2.67;;
10162;SDS011;5123;52.556;13.384;2023-02-01T15:22:13;4.33;;;1.70;;
10162;SDS011;5123;52.556;13.384;2023-02-01T15:24:54;3.83;;;2.40;;
10162;SDS011;5123;52.556;13.384;2023-02-01T15:27:32;2.97;;;1.80;;
10162;SDS011;5123;52.556;13.384;2023-02-01T15:30:06;1.70;;;1.60;;
10162;SDS011;5123;52.556;13.384;2023-02-01T15:32:44;2.67;;;2.00;;
10162;SDS011;5123;52.556;13.384;2023-02-01T15:35:34;4.60;;;2.37;;
10162;SDS011;5123;52.556;13.384;2023-02-01T15:38:19;3.57;;;2.20;;
10162;SDS011;5123;52.556;13.384;2023-02-01T15:40:56;2.43;;;2.10;;
10162;SDS011;5123;52.556;13.384;2023-02-01T15:43:33;4.40;;;1.73;;
10162;SDS011;5123;52.556;13.384;2023-02-01T15:46:12;2.17;;;1.60;;
10162;SDS011;5123;52.556;13.384;2023-02-01T15:48:56;1.50;;;1.37;;
10162;SDS011;5123;52.556;13.384;2023-02-01T15:51:30;1.50;;;1.40;;
10162;SDS011;5123;52.556;13.384;2023-02-01T15:54:06;1.97;;;1.60;;
10162;SDS011;5123;52.556;13.384;2023-02-01T15:56:44;2.63;;;1.83;;
10162;SDS011;5123;52.556;13.384;2023-02-01T15:59:24;1.87;;;1.43;;
10162;SDS011;5123;52.556;13.384;2023-02-01T16:01:58;1.17;;;1.10;;
10162;SDS011;5123;52.556;13.384;2023-02-01T16:04:33;2.40;;;1.00;;
10162;SDS011;5123;52.556;13.384;2023-02-01T16:07:22;1.20;;;1.10;;
10162;SDS011;5123;52.556;13.384;2023-02-01T16:10:02;2.63;;;1.13;;
10162;SDS011;5123;52.556;13.384;2023-02-01T16:13:05;1.50;;;1.40;;
10162;SDS011;5123;52.556;13.384;2023-02-01T16:15:42;4.33;;;1.60;;
10162;SDS011;5123;52.556;13.384;2023-02-01T16:18:16;1.17;;;1.17;;
10162;SDS011;5123;52.556;13.384;2023-02-01T16:20:59;4.27;;;1.37;;